Time;durP1;ratioP1;P1;durP2;ratioP2;P2;SDS_P1;SDS_P2;PMS_P1;PMS_P2;Temp;Humidity;BMP_temperature;BMP_pressure;BME280_temperature;BME280_humidity;BME280_pressure;Samples;Min_cycle;Max_cycle;Signal;HPM_P1;HPM_P2
2021/12/04 00:02:25;;;;;;;79.87;45.63;;;4.70;99.90;;;;;;5064520;28;20137;-71
2021/12/04 00:04:53;;;;;;;72.67;44.07;;;4.80;99.90;;;;;;5051301;28;20039;-71
2021/12/04 00:07:21;;;;;;;87.10;46.27;;;4.80;99.90;;;;;;5062751;28;20060;-71
2021/12/04 00:09:50;;;;;;;82.53;45.40;;;4.80;99.90;;;;;;5055442;28;20040;-71
2021/12/04 00:12:17;;;;;;;81.23;45.30;;;4.80;99.90;;;;;;5070493;28;20089;-71
2021/12/04 00:14:44;;;;;;;86.60;45.37;;;4.80;99.90;;;;;;5074870;28;20630;-71
2021/12/04 00:17:11;;;;;;;83.07;43.87;;;4.80;99.90;;;;;;5059170;28;20037;-71
2021/12/04 00:19:38;;;;;;;98.53;47.30;;;4.80;99.90;;;;;;5074359;28;20164;-71
2021/12/04 00:22:04;;;;;;;83.67;44.77;;;4.80;99.90;;;;;;5067055;28;20606;-71
2021/12/04 00:24:30;;;;;;;83.97;45.10;;;4.80;99.90;;;;;;5076491;28;20913;-71
2021/12/04 00:26:57;;;;;;;82.70;44.57;;;4.80;99.90;;;;;;5074680;28;20170;-70
2021/12/04 00:29:23;;;;;;;89.23;45.80;;;4.80;99.90;;;;;;5072840;28;20036;-71
2021/12/04 00:31:52;;;;;;;85.47;45.27;;;4.80;99.90;;;;;;5077010;28;20525;-71
2021/12/04 00:34:21;;;;;;;90.53;46.77;;;4.80;99.90;;;;;;5053796;28;20036;-70
2021/12/04 00:50:13;;;;;;;105.70;48.37;;;4.80;99.90;;;;;;5056469;28;20040;-70
2021/12/04 00:52:39;;;;;;;85.67;44.53;;;4.80;99.90;;;;;;5060314;28;20118;-70
2021/12/04 00:55:06;;;;;;;100.90;47.67;;;4.70;99.90;;;;;;5064815;28;20041;-71
2021/12/04 00:57:33;;;;;;;107.93;49.27;;;4.70;99.90;;;;;;5076917;28;20048;-71
2021/12/04 00:59:59;;;;;;;92.57;46.60;;;4.70;99.90;;;;;;5071420;28;20036;-71
2021/12/04 01:02:26;;;;;;;87.97;45.50;;;4.70;99.90;;;;;;5068293;28;20048;-71
2021/12/04 01:04:51;;;;;;;96.60;45.63;;;4.70;99.90;;;;;;5072163;28;20040;-71
2021/12/04 01:07:20;;;;;;;96.87;46.43;;;4.70;99.90;;;;;;5049572;28;20503;-70
2021/12/04 01:09:46;;;;;;;92.90;45.10;;;4.70;99.90;;;;;;5073476;28;20407;-70
2021/12/04 01:12:12;;;;;;;108.23;46.67;;;4.70;99.90;;;;;;5053717;28;20693;-70
2021/12/04 01:14:38;;;;;;;97.53;43.77;;;4.80;99.90;;;;;;5054282;28;20043;-70
2021/12/04 01:17:04;;;;;;;94.47;45.20;;;4.70;99.90;;;;;;5054389;28;20043;-70
2021/12/04 01:19:30;;;;;;;121.73;47.17;;;4.80;99.90;;;;;;5086611;28;20403;-71
2021/12/04 01:21:57;;;;;;;104.43;45.13;;;4.80;99.90;;;;;;5051543;28;20986;-71
2021/12/04 01:24:24;;;;;;;135.00;47.70;;;4.80;99.90;;;;;;5050007;28;20044;-71
2021/12/04 01:26:50;;;;;;;95.50;43.73;;;4.70;99.90;;;;;;5059783;28;20127;-71
2021/12/04 01:29:17;;;;;;;96.10;42.60;;;4.70;99.90;;;;;;5042587;28;20043;-71
2021/12/04 01:31:44;;;;;;;109.43;43.80;;;4.60;99.90;;;;;;5071280;28;20044;-71
2021/12/04 01:34:10;;;;;;;103.47;43.43;;;4.70;99.90;;;;;;5064236;28;20052;-72
2021/12/04 01:36:36;;;;;;;85.43;40.83;;;4.80;99.90;;;;;;5066973;28;20044;-72
2021/12/04 01:39:04;;;;;;;84.97;40.90;;;4.70;99.90;;;;;;5060171;28;20495;-71
2021/12/04 01:41:30;;;;;;;82.07;39.90;;;4.70;99.90;;;;;;5075431;28;20036;-72
2021/12/04 01:44:01;;;;;;;81.60;39.93;;;4.70;99.90;;;;;;5049481;28;20037;-71
2021/12/04 01:46:28;;;;;;;70.47;37.60;;;4.70;99.90;;;;;;5069859;28;20032;-71
2021/12/04 01:48:54;;;;;;;70.43;37.70;;;4.70;99.90;;;;;;5055027;28;20169;-71
2021/12/04 01:51:21;;;;;;;67.67;37.30;;;4.70;99.90;;;;;;5064707;28;20052;-71
2021/12/04 01:53:47;;;;;;;58.27;35.50;;;4.70;99.90;;;;;;5070040;28;20032;-72
2021/12/04 01:56:13;;;;;;;59.73;35.27;;;4.70;99.90;;;;;;5070716;28;20047;-72
2021/12/04 01:58:41;;;;;;;55.83;33.23;;;4.70;99.90;;;;;;5060789;28;20150;-71
2021/12/04 02:01:08;;;;;;;49.70;32.53;;;4.60;99.90;;;;;;5054629;28;20182;-71
2021/12/04 02:03:34;;;;;;;53.50;32.57;;;4.60;99.90;;;;;;5075331;28;20053;-71
2021/12/04 02:06:00;;;;;;;44.80;30.77;;;4.70;99.90;;;;;;5063232;28;20043;-71
2021/12/04 02:08:26;;;;;;;45.67;32.37;;;4.70;99.90;;;;;;5048486;28;20048;-72
2021/12/04 02:10:55;;;;;;;44.20;31.17;;;4.70;99.90;;;;;;5066170;28;20607;-73
2021/12/04 02:13:22;;;;;;;43.87;31.13;;;4.70;99.90;;;;;;5066206;28;20048;-74
2021/12/04 02:15:48;;;;;;;45.17;30.93;;;4.70;99.90;;;;;;5052628;28;20402;-74
2021/12/04 02:18:16;;;;;;;41.30;29.63;;;4.70;99.90;;;;;;5066317;28;20666;-74
2021/12/04 02:20:42;;;;;;;41.00;29.10;;;4.70;99.90;;;;;;5053878;28;20044;-73
2021/12/04 02:23:09;;;;;;;39.93;28.13;;;4.70;99.90;;;;;;5076653;28;20748;-74
2021/12/04 02:25:36;;;;;;;39.63;28.20;;;4.70;99.90;;;;;;5068809;28;20036;-72
2021/12/04 02:28:03;;;;;;;38.30;28.87;;;4.70;99.90;;;;;;5072723;28;20059;-72
2021/12/04 02:30:34;;;;;;;41.03;28.83;;;4.70;99.90;;;;;;5068421;28;20047;-72
2021/12/04 02:33:00;;;;;;;36.60;27.00;;;4.70;99.90;;;;;;5066487;28;20402;-71
2021/12/04 02:35:27;;;;;;;37.67;27.73;;;4.70;99.90;;;;;;5076508;28;20043;-72
2021/12/04 02:37:53;;;;;;;37.13;27.13;;;4.70;99.90;;;;;;5071262;28;20391;-72
2021/12/04 02:40:22;;;;;;;37.00;26.70;;;4.70;99.90;;;;;;5073782;28;20584;-71
2021/12/04 02:42:49;;;;;;;36.63;28.13;;;4.70;99.90;;;;;;5055905;28;20131;-71
2021/12/04 02:45:16;;;;;;;35.10;26.80;;;4.70;99.90;;;;;;5055320;28;20052;-72
2021/12/04 02:47:43;;;;;;;39.30;29.07;;;4.70;99.90;;;;;;5072311;28;20048;-71
2021/12/04 02:50:11;;;;;;;35.87;26.50;;;4.70;99.90;;;;;;5046910;28;20113;-71
2021/12/04 02:52:38;;;;;;;39.87;28.40;;;4.70;99.90;;;;;;5057586;28;20040;-71
2021/12/04 02:55:05;;;;;;;40.53;30.00;;;4.70;99.90;;;;;;5083815;28;20076;-72
2021/12/04 02:57:33;;;;;;;40.00;29.17;;;4.70;99.90;;;;;;5064794;28;20101;-72
2021/12/04 02:59:59;;;;;;;36.90;28.13;;;4.80;99.90;;;;;;5061169;28;20695;-72
2021/12/04 03:02:25;;;;;;;37.80;27.87;;;4.70;99.90;;;;;;5081550;28;20086;-72
2021/12/04 03:04:58;;;;;;;39.07;29.03;;;4.70;99.90;;;;;;5085361;28;20046;-72
2021/12/04 03:07:26;;;;;;;36.77;27.87;;;4.70;99.90;;;;;;5053746;28;20071;-72
2021/12/04 03:09:53;;;;;;;35.93;27.10;;;4.70;99.90;;;;;;5065203;28;20041;-71
2021/12/04 03:12:22;;;;;;;37.37;27.50;;;4.70;99.90;;;;;;5064494;28;20608;-71
2021/12/04 03:14:48;;;;;;;37.17;28.25;;;4.70;99.90;;;;;;5065173;28;20810;-72
2021/12/04 03:17:17;;;;;;;38.27;27.33;;;4.60;99.90;;;;;;5064928;28;20143;-71
2021/12/04 03:19:43;;;;;;;36.07;26.67;;;4.60;99.90;;;;;;5066295;28;20108;-71
2021/12/04 03:22:09;;;;;;;37.87;27.17;;;4.70;99.90;;;;;;5066245;28;20058;-72
2021/12/04 03:24:39;;;;;;;36.67;26.00;;;4.70;99.90;;;;;;5047967;28;20131;-71
2021/12/04 03:27:05;;;;;;;;;;;4.60;99.90;;;;;;5082924;28;20152;-71
2021/12/04 03:29:34;;;;;;;35.67;26.83;;;4.60;99.90;;;;;;5064883;28;20414;-72
2021/12/04 03:42:53;;;;;;;41.20;27.97;;;4.60;99.90;;;;;;5066059;28;20460;-71
2021/12/04 03:45:19;;;;;;;42.40;28.00;;;4.60;99.90;;;;;;5048805;28;20048;-72
2021/12/04 03:47:48;;;;;;;36.13;26.23;;;4.60;99.90;;;;;;5049211;28;20105;-72
2021/12/04 03:50:16;;;;;;;37.60;27.17;;;4.60;99.90;;;;;;5064294;28;20119;-71
2021/12/04 03:52:42;;;;;;;45.53;27.20;;;4.70;99.90;;;;;;5053878;28;20048;-71
2021/12/04 03:55:09;;;;;;;38.23;27.47;;;4.60;99.90;;;;;;5067494;28;20052;-72
2021/12/04 03:57:36;;;;;;;42.67;27.20;;;4.60;99.90;;;;;;5073861;28;20052;-72
2021/12/04 04:00:04;;;;;;;46.77;28.33;;;4.60;99.90;;;;;;5067107;28;20032;-71
2021/12/04 04:02:30;;;;;;;41.40;28.20;;;4.60;99.90;;;;;;5069130;28;20052;-71
2021/12/04 04:04:56;;;;;;;40.50;26.37;;;4.60;99.90;;;;;;5047163;28;20044;-72
2021/12/04 04:07:22;;;;;;;40.50;26.87;;;4.60;99.90;;;;;;5080807;28;20602;-71
2021/12/04 04:09:48;;;;;;;37.93;24.70;;;4.60;99.90;;;;;;5049404;28;20057;-71
2021/12/04 04:12:14;;;;;;;41.37;25.97;;;4.60;99.90;;;;;;5049586;28;20683;-72
2021/12/04 04:14:40;;;;;;;53.73;28.57;;;4.60;99.90;;;;;;5066468;28;20047;-72
2021/12/04 04:17:05;;;;;;;42.33;26.50;;;4.60;99.90;;;;;;5049924;28;20037;-71
2021/12/04 04:19:31;;;;;;;50.60;27.57;;;4.60;99.90;;;;;;5049715;28;20138;-72
2021/12/04 04:21:58;;;;;;;52.30;27.33;;;4.60;99.90;;;;;;5059017;28;20133;-72
2021/12/04 04:24:29;;;;;;;61.03;28.67;;;4.50;99.90;;;;;;5072170;28;20060;-72
2021/12/04 04:26:55;;;;;;;49.50;27.67;;;4.60;99.90;;;;;;5071429;28;20412;-71
2021/12/04 04:29:22;;;;;;;50.53;28.10;;;4.60;99.90;;;;;;5069922;28;20040;-71
2021/12/04 04:31:49;;;;;;;44.80;26.60;;;4.50;99.90;;;;;;5042683;28;20180;-72
2021/12/04 04:34:29;;;;;;;48.50;27.53;;;4.50;99.90;;;;;;5072680;28;20040;-72
2021/12/04 05:14:36;;;;;;;54.67;27.60;;;4.50;99.90;;;;;;5068560;28;20143;-71
2021/12/04 05:17:08;;;;;;;60.90;28.70;;;4.50;99.90;;;;;;5069350;28;20412;-71
2021/12/04 05:22:08;;;;;;;55.30;25.87;;;4.50;99.90;;;;;;5068760;28;20066;-71
2021/12/04 05:24:35;;;;;;;47.00;26.57;;;4.50;99.90;;;;;;5051615;28;20110;-72
2021/12/04 05:27:01;;;;;;;58.07;28.30;;;4.50;99.90;;;;;;5019152;28;20048;-71
2021/12/04 05:29:27;;;;;;;48.43;26.40;;;4.50;99.90;;;;;;5068044;28;20048;-71
2021/12/04 05:31:53;;;;;;;45.77;26.53;;;4.50;99.90;;;;;;5068436;28;20506;-71
2021/12/04 05:34:19;;;;;;;49.23;27.33;;;4.50;99.90;;;;;;5067368;28;20052;-72
2021/12/04 05:36:45;;;;;;;44.53;25.17;;;4.50;99.90;;;;;;5067952;28;20044;-71
2021/12/04 05:39:11;;;;;;;41.80;25.07;;;4.50;99.90;;;;;;5064324;28;20514;-71
2021/12/04 05:41:37;;;;;;;42.17;24.27;;;4.50;99.90;;;;;;5070615;28;20052;-72
2021/12/04 05:44:08;;;;;;;47.17;24.97;;;4.50;99.90;;;;;;5076792;28;20123;-71
2021/12/04 05:46:39;;;;;;;48.07;26.50;;;4.50;99.90;;;;;;5051588;28;20076;-72
2021/12/04 05:49:15;;;;;;;45.30;25.10;;;4.50;99.90;;;;;;5052061;28;20110;-72
2021/12/04 05:51:51;;;;;;;55.83;27.97;;;4.50;99.90;;;;;;5051573;28;20056;-71
2021/12/04 05:54:33;;;;;;;56.83;26.90;;;4.50;99.90;;;;;;5035754;28;20411;-71
2021/12/04 05:56:59;;;;;;;50.07;28.30;;;4.50;99.90;;;;;;5054091;28;20052;-71
2021/12/04 05:59:27;;;;;;;49.30;26.13;;;4.50;99.90;;;;;;5067436;28;20116;-72
2021/12/04 06:01:53;;;;;;;43.53;25.33;;;4.50;99.90;;;;;;5076504;28;20128;-71
2021/12/04 06:04:18;;;;;;;44.57;25.17;;;4.50;99.90;;;;;;5071759;28;20169;-71
2021/12/04 06:06:44;;;;;;;43.43;24.70;;;4.50;99.90;;;;;;5027858;28;20054;-71
2021/12/04 06:09:10;;;;;;;41.70;24.17;;;4.50;99.90;;;;;;5068999;28;20449;-72
2021/12/04 06:11:39;;;;;;;44.07;25.93;;;4.50;99.90;;;;;;5052401;28;20048;-72
2021/12/04 06:14:05;;;;;;;37.97;23.70;;;4.50;99.90;;;;;;5071249;28;20567;-72
2021/12/04 06:16:31;;;;;;;42.03;25.03;;;4.50;99.90;;;;;;5066278;28;20055;-71
2021/12/04 06:18:59;;;;;;;47.80;25.23;;;4.50;99.90;;;;;;5048920;28;20157;-71
2021/12/04 06:24:09;;;;;;;44.63;25.13;;;4.50;99.90;;;;;;5085519;28;20040;-71
2021/12/04 06:26:36;;;;;;;45.63;25.13;;;4.50;99.90;;;;;;5060279;28;20135;-72
2021/12/04 06:29:03;;;;;;;44.00;25.13;;;4.50;99.90;;;;;;5078999;28;20051;-71
2021/12/04 06:31:32;;;;;;;47.80;27.93;;;4.50;99.90;;;;;;5062046;28;20084;-71
2021/12/04 06:33:59;;;;;;;49.87;26.50;;;4.60;99.90;;;;;;5069117;28;20043;-72
2021/12/04 06:36:25;;;;;;;45.57;25.50;;;4.50;99.90;;;;;;5063025;28;20127;-71
2021/12/04 06:38:52;;;;;;;48.00;26.77;;;4.50;99.90;;;;;;5064539;28;20087;-71
2021/12/04 06:41:18;;;;;;;49.20;26.90;;;4.40;99.90;;;;;;5048154;28;20155;-71
2021/12/04 06:43:48;;;;;;;45.50;25.67;;;4.50;99.90;;;;;;5065773;28;20127;-71
2021/12/04 06:46:16;;;;;;;49.13;27.95;;;4.50;99.90;;;;;;5064535;28;20062;-71
2021/12/04 06:48:46;;;;;;;48.70;27.03;;;4.50;99.90;;;;;;5054001;28;20123;-71
2021/12/04 06:53:46;;;;;;;49.80;25.30;;;4.50;99.90;;;;;;5051265;28;20044;-71
2021/12/04 06:56:12;;;;;;;53.07;27.60;;;4.50;99.90;;;;;;5061400;28;20044;-71
2021/12/04 06:58:39;;;;;;;48.67;26.40;;;4.50;99.90;;;;;;5072605;28;20568;-72
2021/12/04 07:01:07;;;;;;;55.13;28.53;;;4.50;99.90;;;;;;5065664;28;20063;-71
2021/12/04 07:03:33;;;;;;;57.63;27.53;;;4.50;99.90;;;;;;5082236;28;20075;-71
2021/12/04 07:05:59;;;;;;;55.00;27.90;;;4.50;99.90;;;;;;5046579;28;20079;-72
2021/12/04 07:08:25;;;;;;;58.60;28.47;;;4.50;99.90;;;;;;5064462;28;20068;-71
2021/12/04 07:10:51;;;;;;;52.10;25.87;;;4.40;99.90;;;;;;5051452;28;20044;-71
2021/12/04 07:13:17;;;;;;;59.07;28.33;;;4.40;99.90;;;;;;5060757;28;20036;-71
2021/12/04 07:15:45;;;;;;;49.10;25.47;;;4.40;99.90;;;;;;5074032;28;20048;-71
2021/12/04 07:18:11;;;;;;;51.67;25.90;;;4.50;99.90;;;;;;5065163;28;20080;-71
2021/12/04 07:20:37;;;;;;;64.00;28.43;;;4.50;99.90;;;;;;5065014;28;20506;-72
2021/12/04 07:23:03;;;;;;;56.23;27.17;;;4.40;99.90;;;;;;5050534;28;20041;-71
2021/12/04 07:25:29;;;;;;;56.47;26.97;;;4.40;99.90;;;;;;5047465;28;20040;-72
2021/12/04 07:27:55;;;;;;;54.93;27.07;;;4.40;99.90;;;;;;5073606;28;20040;-71
2021/12/04 07:30:22;;;;;;;60.47;27.43;;;4.40;99.90;;;;;;5059547;28;20380;-71
2021/12/04 07:32:48;;;;;;;64.93;28.57;;;4.40;99.90;;;;;;5067425;28;20386;-72
2021/12/04 07:35:15;;;;;;;69.47;28.33;;;4.40;99.90;;;;;;5048360;28;20041;-72
2021/12/04 07:37:42;;;;;;;71.23;28.33;;;4.40;99.90;;;;;;5048585;28;20044;-72
2021/12/04 07:40:08;;;;;;;68.53;27.47;;;4.40;99.90;;;;;;5073401;28;20048;-71
2021/12/04 07:42:34;;;;;;;67.20;27.37;;;4.40;99.90;;;;;;5051333;28;20080;-71
2021/12/04 07:45:00;;;;;;;64.97;27.93;;;4.40;99.90;;;;;;5035766;28;20071;-71
2021/12/04 07:47:31;;;;;;;64.07;26.00;;;4.40;99.90;;;;;;5063508;28;20047;-71
2021/12/04 07:49:57;;;;;;;50.77;23.23;;;4.40;99.90;;;;;;5072157;28;20441;-72
2021/12/04 07:52:23;;;;;;;53.27;24.90;;;4.40;99.90;;;;;;5050826;28;20086;-72
2021/12/04 07:54:50;;;;;;;48.70;23.93;;;4.40;99.90;;;;;;5067757;28;20796;-72
2021/12/04 07:57:17;;;;;;;42.93;21.50;;;4.40;99.90;;;;;;5065177;28;20047;-71
2021/12/04 07:59:44;;;;;;;49.40;23.40;;;4.40;99.90;;;;;;5070381;28;20792;-72
2021/12/04 08:02:10;;;;;;;38.77;22.40;;;4.40;99.90;;;;;;5059430;28;20064;-71
2021/12/04 08:04:36;;;;;;;41.33;22.37;;;4.40;99.90;;;;;;5055049;28;20078;-71
2021/12/04 08:07:02;;;;;;;34.40;20.53;;;4.40;99.90;;;;;;5058713;28;20494;-72
2021/12/04 08:09:27;;;;;;;38.50;21.20;;;4.40;99.90;;;;;;5086567;28;20114;-72
2021/12/04 08:11:53;;;;;;;35.00;21.03;;;4.50;99.90;;;;;;5064247;28;20510;-71
2021/12/04 08:14:19;;;;;;;34.83;20.67;;;4.40;99.90;;;;;;5047476;28;20462;-71
2021/12/04 08:16:47;;;;;;;31.00;19.53;;;4.40;99.90;;;;;;5078062;28;20050;-71
2021/12/04 08:19:13;;;;;;;31.60;20.37;;;4.40;99.90;;;;;;5067575;28;20142;-72
2021/12/04 08:21:39;;;;;;;31.50;20.67;;;4.50;99.90;;;;;;5059848;28;20492;-72
2021/12/04 08:24:06;;;;;;;33.80;21.60;;;4.50;99.90;;;;;;5058352;28;20484;-71
2021/12/04 08:26:38;;;;;;;32.73;21.40;;;4.50;99.90;;;;;;5070200;28;20052;-71
2021/12/04 08:29:05;;;;;;;31.80;21.50;;;4.50;99.90;;;;;;5056151;28;20535;-71
2021/12/04 08:31:34;;;;;;;37.77;22.67;;;4.50;99.90;;;;;;5050677;28;20537;-71
2021/12/04 08:34:00;;;;;;;36.77;22.93;;;4.40;99.90;;;;;;5071240;28;20113;-72
2021/12/04 08:36:26;;;;;;;38.20;23.33;;;4.50;99.90;;;;;;5040588;28;20044;-71
2021/12/04 08:38:52;;;;;;;39.63;24.43;;;4.60;99.90;;;;;;5059218;28;20039;-71
2021/12/04 08:41:19;;;;;;;37.90;24.60;;;4.50;99.90;;;;;;5075347;28;20040;-72
2021/12/04 08:43:45;;;;;;;45.47;26.87;;;4.60;99.90;;;;;;5056850;28;20048;-71
2021/12/04 08:46:13;;;;;;;41.60;25.23;;;4.60;99.90;;;;;;5069236;28;20043;-72
2021/12/04 08:48:39;;;;;;;43.07;26.27;;;4.60;99.90;;;;;;5048778;28;20136;-71
2021/12/04 08:51:05;;;;;;;44.63;26.83;;;4.60;99.90;;;;;;5054981;28;20487;-71
2021/12/04 08:53:31;;;;;;;46.10;27.97;;;4.60;99.90;;;;;;5044737;28;20039;-72
2021/12/04 08:55:57;;;;;;;47.13;27.17;;;4.60;99.90;;;;;;5065837;28;20427;-71
2021/12/04 08:58:23;;;;;;;49.17;28.67;;;4.60;99.90;;;;;;5075455;28;20039;-72
2021/12/04 09:00:55;;;;;;;44.17;28.33;;;4.60;99.90;;;;;;5050667;28;20044;-72
2021/12/04 09:03:25;;;;;;;45.47;27.60;;;4.70;99.90;;;;;;5067494;28;20076;-72
2021/12/04 09:05:52;;;;;;;43.25;26.75;;;4.70;99.90;;;;;;5069784;28;20068;-71
2021/12/04 09:08:20;;;;;;;42.27;27.13;;;4.70;99.90;;;;;;5043367;28;20040;-72
2021/12/04 09:10:47;;;;;;;46.60;27.67;;;4.80;99.90;;;;;;5068203;28;20363;-71
2021/12/04 09:13:14;;;;;;;45.07;27.50;;;4.80;99.90;;;;;;5078522;28;20589;-72
2021/12/04 09:15:41;;;;;;;40.70;26.97;;;4.80;99.90;;;;;;5077566;28;20132;-71
2021/12/04 09:18:07;;;;;;;44.00;26.93;;;4.80;99.90;;;;;;5078607;28;20131;-72
2021/12/04 09:20:36;;;;;;;40.33;25.17;;;4.80;99.90;;;;;;5087553;28;20131;-71
2021/12/04 09:23:06;;;;;;;43.47;26.33;;;4.80;99.90;;;;;;5063623;28;21434;-72
2021/12/04 09:25:33;;;;;;;40.70;25.35;;;4.90;99.90;;;;;;5067457;28;20049;-72
2021/12/04 09:33:57;;;;;;;38.97;23.63;;;4.80;99.90;;;;;;5057196;28;20060;-71
2021/12/04 10:12:11;;;;;;;38.40;22.37;;;5.00;99.90;;;;;;5071834;28;20053;-72
2021/12/04 10:17:58;;;;;;;34.30;20.83;;;5.00;99.90;;;;;;5055195;28;20427;-71
2021/12/04 10:34:15;;;;;;;42.20;23.23;;;5.10;99.90;;;;;;5066356;28;20056;-71
2021/12/04 10:36:41;;;;;;;41.83;22.87;;;5.10;99.90;;;;;;5053542;28;20391;-71
2021/12/04 10:39:10;;;;;;;41.57;23.70;;;5.10;99.90;;;;;;5071567;28;20059;-71
2021/12/04 10:41:40;;;;;;;42.47;24.20;;;5.10;99.90;;;;;;5062588;28;20032;-71
2021/12/04 10:44:21;;;;;;;40.72;23.40;;;5.20;99.90;;;;;;5065256;28;20467;-73
2021/12/04 10:47:10;;;;;;;45.87;25.57;;;5.20;99.90;;;;;;5080489;28;20443;-71
2021/12/04 10:50:12;;;;;;;43.97;24.60;;;5.20;99.90;;;;;;5064549;28;20138;-70
2021/12/04 10:55:38;;;;;;;45.65;25.45;;;5.20;99.90;;;;;;5071435;28;20048;-70
2021/12/04 11:04:06;;;;;;;42.95;24.63;;;5.20;99.90;;;;;;5069834;28;20056;-71
2021/12/04 11:39:08;;;;;;;45.20;24.93;;;5.30;99.90;;;;;;5066173;28;20554;-72
2021/12/04 11:41:53;;;;;;;49.43;26.53;;;5.30;99.90;;;;;;5060210;28;20505;-71
2021/12/04 11:45:08;;;;;;;48.47;26.43;;;5.30;99.90;;;;;;5069305;28;20393;-71
2021/12/04 11:47:08;;;;;;;53.22;28.20;;;5.30;99.90;;;;;;5061747;28;20095;-71
2021/12/04 11:49:35;;;;;;;55.70;28.63;;;5.30;99.90;;;;;;5036977;28;20075;-71
2021/12/04 11:52:14;;;;;;;54.87;29.10;;;5.30;99.90;;;;;;5074046;28;20051;-72
2021/12/04 11:54:46;;;;;;;60.07;30.20;;;5.20;99.90;;;;;;5064873;28;20362;-72
2021/12/04 11:57:13;;;;;;;58.70;30.10;;;5.20;99.90;;;;;;5049312;28;20044;-72
2021/12/04 11:59:42;;;;;;;66.00;33.40;;;5.20;99.90;;;;;;5036948;28;20044;-72
2021/12/04 12:02:15;;;;;;;64.17;31.17;;;5.20;99.90;;;;;;5067588;28;20048;-72
2021/12/04 12:04:47;;;;;;;67.00;33.67;;;5.10;99.90;;;;;;5055642;28;20427;-72
2021/12/04 12:07:21;;;;;;;69.33;31.80;;;5.20;99.90;;;;;;5052287;28;20055;-72
2021/12/04 12:09:49;;;;;;;75.93;35.37;;;5.20;99.90;;;;;;5054806;28;20055;-73
2021/12/04 12:12:17;;;;;;;77.57;35.83;;;5.20;99.90;;;;;;5061210;28;20048;-73
2021/12/04 12:14:52;;;;;;;69.63;34.03;;;5.30;99.90;;;;;;5064235;28;20455;-73
2021/12/04 12:17:40;;;;;;;69.30;34.10;;;5.30;99.90;;;;;;5072063;28;20135;-71
2021/12/04 12:20:13;;;;;;;74.13;35.73;;;5.30;99.90;;;;;;5075632;28;20048;-71
2021/12/04 12:22:52;;;;;;;76.63;37.00;;;5.30;99.90;;;;;;5075646;28;20375;-71
2021/12/04 12:25:34;;;;;;;78.47;37.47;;;5.30;99.90;;;;;;5050048;28;20066;-71
2021/12/04 12:31:57;;;;;;;79.43;37.92;;;5.30;99.90;;;;;;5074085;28;20442;-71
2021/12/04 12:33:54;;;;;;;82.03;37.50;;;5.30;99.90;;;;;;5066780;28;20060;-71
2021/12/04 12:36:23;;;;;;;91.25;39.92;;;5.30;99.90;;;;;;5072279;28;20925;-72
2021/12/04 12:38:57;;;;;;;97.70;41.40;;;5.40;99.90;;;;;;5061938;28;20140;-71
2021/12/04 12:41:38;;;;;;;106.10;41.77;;;5.30;99.90;;;;;;5069823;28;20151;-71
2021/12/04 12:44:10;;;;;;;103.67;42.23;;;5.30;99.90;;;;;;5078871;28;20101;-71
2021/12/04 12:46:47;;;;;;;116.87;44.43;;;5.20;99.90;;;;;;5072480;28;20044;-71
2021/12/04 12:49:28;;;;;;;86.83;37.03;;;5.30;99.90;;;;;;5079352;28;20059;-71
2021/12/04 12:52:00;;;;;;;83.73;37.83;;;5.30;99.90;;;;;;5083144;28;20079;-71
2021/12/04 12:54:43;;;;;;;91.40;37.97;;;5.20;99.90;;;;;;5079854;28;20051;-72
2021/12/04 12:57:17;;;;;;;85.37;39.13;;;5.30;99.90;;;;;;5087616;28;20036;-72
2021/12/04 13:13:53;;;;;;;71.80;34.83;;;5.30;99.90;;;;;;5069299;28;20490;-71
2021/12/04 13:16:28;;;;;;;77.77;37.47;;;5.30;99.90;;;;;;5061699;28;20257;-71
2021/12/04 13:19:01;;;;;;;70.20;34.70;;;5.30;99.90;;;;;;5057309;28;20494;-72
2021/12/04 13:21:28;;;;;;;74.30;35.63;;;5.30;99.90;;;;;;5052954;28;20055;-71
2021/12/04 13:23:57;;;;;;;71.57;35.40;;;5.30;99.90;;;;;;5077497;28;20044;-71
2021/12/04 13:26:33;;;;;;;77.53;36.20;;;5.30;99.90;;;;;;5060453;28;20045;-71
2021/12/04 13:29:03;;;;;;;69.93;35.27;;;5.30;99.90;;;;;;5072926;28;20048;-72
2021/12/04 13:31:29;;;;;;;74.78;36.15;;;5.30;99.90;;;;;;5070313;28;20048;-72
2021/12/04 13:33:56;;;;;;;73.37;38.03;;;5.30;99.90;;;;;;5066258;28;20048;-72
2021/12/04 13:36:25;;;;;;;78.03;37.30;;;5.30;99.90;;;;;;5050243;28;20481;-72
2021/12/04 13:39:13;;;;;;;78.93;37.33;;;5.30;99.90;;;;;;5066458;28;20049;-72
2021/12/04 13:41:42;;;;;;;76.73;37.93;;;5.30;99.90;;;;;;5067784;28;20058;-72
2021/12/04 13:44:11;;;;;;;73.72;36.72;;;5.40;99.90;;;;;;5068422;28;20066;-72
2021/12/04 13:46:45;;;;;;;74.27;37.97;;;5.40;99.90;;;;;;5061370;28;20575;-74
2021/12/04 13:49:32;;;;;;;79.23;37.93;;;5.30;99.90;;;;;;5050905;28;20586;-74
2021/12/04 13:52:07;;;;;;;89.03;41.80;;;5.40;99.90;;;;;;5066533;28;20143;-74
2021/12/04 13:54:36;;;;;;;89.43;46.50;;;5.30;99.90;;;;;;5070791;28;20056;-74
2021/12/04 13:57:08;;;;;;;81.17;42.10;;;5.40;99.90;;;;;;5087027;28;20048;-74
2021/12/04 13:59:34;;;;;;;77.93;40.53;;;5.40;99.90;;;;;;5060027;28;20055;-74
2021/12/04 14:02:00;;;;;;;78.10;42.37;;;5.30;99.90;;;;;;5051470;28;20048;-74
2021/12/04 14:04:26;;;;;;;75.47;42.20;;;5.30;99.90;;;;;;5067383;28;20045;-74
2021/12/04 14:06:55;;;;;;;80.27;42.77;;;5.40;99.90;;;;;;5044337;28;20487;-74
2021/12/04 14:09:23;;;;;;;86.03;43.13;;;5.30;99.90;;;;;;5050538;28;20056;-74
2021/12/04 14:11:50;;;;;;;88.87;45.80;;;5.30;99.90;;;;;;5067054;28;20462;-74
2021/12/04 14:14:20;;;;;;;90.43;44.77;;;5.30;99.90;;;;;;5050692;28;20048;-74
2021/12/04 14:16:53;;;;;;;95.27;46.17;;;5.30;99.90;;;;;;5067249;28;20235;-74
2021/12/04 14:19:22;;;;;;;101.27;48.43;;;5.30;99.90;;;;;;5051444;28;20458;-74
2021/12/04 14:21:56;;;;;;;100.53;48.67;;;5.30;99.90;;;;;;5050101;28;20064;-74
2021/12/04 14:24:44;;;;;;;111.50;51.53;;;5.30;99.90;;;;;;5066953;28;20578;-74
2021/12/04 14:27:25;;;;;;;115.23;51.00;;;5.30;99.90;;;;;;5066802;28;20384;-74
2021/12/04 14:29:54;;;;;;;111.13;50.43;;;5.30;99.90;;;;;;5050888;28;20052;-74
2021/12/04 14:32:26;;;;;;;113.60;52.03;;;5.20;99.90;;;;;;5050408;28;20048;-74
2021/12/04 14:35:05;;;;;;;118.70;52.60;;;5.20;99.90;;;;;;5067400;28;20043;-74
2021/12/04 14:37:43;;;;;;;124.90;58.30;;;5.20;99.90;;;;;;5049732;28;20056;-72
2021/12/04 14:40:34;;;;;;;125.57;59.70;;;5.20;99.90;;;;;;5065304;28;20085;-73
2021/12/04 14:43:02;;;;;;;129.77;57.77;;;5.20;99.90;;;;;;5079203;28;20530;-73
2021/12/04 14:45:33;;;;;;;137.53;56.57;;;5.20;99.90;;;;;;5087502;28;20509;-73
2021/12/04 14:48:02;;;;;;;129.27;55.67;;;5.20;99.90;;;;;;5088546;28;20380;-73
2021/12/04 14:50:29;;;;;;;113.33;52.37;;;5.20;99.90;;;;;;5082736;28;20477;-73
2021/12/04 14:52:58;;;;;;;115.13;50.67;;;5.20;99.90;;;;;;5066980;28;20482;-73
2021/12/04 14:55:36;;;;;;;136.73;54.37;;;5.20;99.90;;;;;;5049711;28;20041;-73
2021/12/04 14:58:13;;;;;;;121.77;51.33;;;5.20;99.90;;;;;;5066757;28;20554;-72
2021/12/04 15:00:41;;;;;;;110.53;50.57;;;5.20;99.90;;;;;;5066699;28;20076;-71
2021/12/04 15:03:20;;;;;;;109.70;49.33;;;5.20;99.90;;;;;;5051337;28;20399;-71
2021/12/04 15:05:50;;;;;;;112.15;50.97;;;5.20;99.90;;;;;;5065866;28;20071;-72
2021/12/04 15:08:21;;;;;;;108.83;49.87;;;5.20;99.90;;;;;;5050070;28;20110;-72
2021/12/04 15:11:00;;;;;;;107.63;48.37;;;5.20;99.90;;;;;;5050859;28;20403;-72
2021/12/04 15:13:34;;;;;;;106.33;49.67;;;5.20;99.90;;;;;;5062456;28;20055;-72
2021/12/04 15:16:05;;;;;;;115.27;49.93;;;5.20;99.90;;;;;;5051034;28;20051;-74
2021/12/04 15:18:36;;;;;;;100.15;49.25;;;5.20;99.90;;;;;;5048909;28;20087;-74
2021/12/04 15:21:06;;;;;;;116.70;51.33;;;5.10;99.90;;;;;;5054684;28;20052;-74
2021/12/04 15:23:35;;;;;;;116.40;53.47;;;5.10;99.90;;;;;;5051260;28;20372;-74
2021/12/04 15:26:15;;;;;;;120.77;60.23;;;5.20;99.90;;;;;;5066140;28;20376;-73
2021/12/04 15:28:46;;;;;;;125.35;53.40;;;5.20;99.90;;;;;;5065370;28;20793;-74
2021/12/04 15:31:13;;;;;;;112.67;49.90;;;5.10;99.90;;;;;;5066610;28;20049;-74
2021/12/04 15:33:43;;;;;;;122.43;54.00;;;5.10;99.90;;;;;;5048837;28;20048;-73
2021/12/04 15:36:30;;;;;;;118.35;51.17;;;5.10;99.90;;;;;;5049682;28;20052;-73
2021/12/04 15:39:00;;;;;;;158.40;59.20;;;5.20;99.90;;;;;;5071029;28;20056;-72
2021/12/04 15:53:07;;;;;;;110.73;47.73;;;5.10;99.90;;;;;;5066332;28;20518;-72
2021/12/04 15:55:43;;;;;;;134.80;52.90;;;5.10;99.90;;;;;;5048972;28;20048;-72
2021/12/04 15:58:12;;;;;;;154.40;55.47;;;5.20;99.90;;;;;;5065991;28;20267;-72
2021/12/04 16:00:42;;;;;;;126.97;51.47;;;5.20;99.90;;;;;;5067693;28;20048;-72
2021/12/04 16:03:12;;;;;;;131.93;54.28;;;5.20;99.90;;;;;;5086318;28;20362;-72
2021/12/04 16:05:41;;;;;;;;;;;5.20;99.90;;;;;;5069124;28;20235;-72